Time;durP1;ratioP1;P1;durP2;ratioP2;P2;SDS_P1;SDS_P2;PMS_P1;PMS_P2;Temp;Humidity;BMP_temperature;BMP_pressure;BME280_temperature;BME280_humidity;BME280_pressure;Samples;Min_cycle;Max_cycle;Signal;HPM_P1;HPM_P2
2023/04/26 06:26:10;;;;;;;23.05;10.90;;;;;;;4.98;100.00;99249.03;5133586;27;20729;-82
2023/04/26 06:28:54;;;;;;;26.23;10.98;;;;;;;5.67;100.00;99240.44;5136859;27;20042;-81
2023/04/26 06:31:38;;;;;;;25.60;12.00;;;;;;;5.91;100.00;99249.31;5131595;27;20038;-81
2023/04/26 06:34:22;;;;;;;17.88;9.98;;;;;;;5.94;100.00;99241.19;5132110;27;20066;-82
2023/04/26 06:37:06;;;;;;;24.92;11.00;;;;;;;6.22;100.00;99254.78;5138447;27;20540;-82
2023/04/26 06:39:50;;;;;;;23.70;10.75;;;;;;;6.56;100.00;99258.22;5133036;27;21102;-83
2023/04/26 06:42:35;;;;;;;24.60;11.88;;;;;;;6.90;100.00;99259.84;5136273;27;20045;-82
2023/04/26 06:45:19;;;;;;;22.17;11.40;;;;;;;7.29;100.00;99248.69;5134688;27;20112;-79
2023/04/26 06:48:04;;;;;;;20.73;11.60;;;;;;;7.71;100.00;99256.34;5136354;27;20073;-82
2023/04/26 06:50:48;;;;;;;22.33;10.77;;;;;;;8.02;100.00;99255.53;5138774;27;20154;-81
2023/04/26 06:53:32;;;;;;;22.52;11.52;;;;;;;8.39;100.00;99256.59;5127266;27;20041;-83
2023/04/26 06:56:19;;;;;;;23.90;10.52;;;;;;;8.72;100.00;99260.78;5135576;27;20109;-79
2023/04/26 06:59:05;;;;;;;18.98;10.93;;;;;;;8.93;100.00;99254.88;5124387;27;20062;-81
2023/04/26 07:01:50;;;;;;;25.83;11.70;;;;;;;9.18;100.00;99262.50;5133130;27;20256;-80
2023/04/26 07:04:35;;;;;;;19.30;10.30;;;;;;;9.56;100.00;99259.78;5124707;27;20038;-78
2023/04/26 07:07:19;;;;;;;17.70;10.38;;;;;;;9.78;100.00;99257.22;5160388;27;20053;-78
2023/04/26 07:10:03;;;;;;;17.48;10.68;;;;;;;9.78;100.00;99249.34;5133491;27;20454;-78
2023/04/26 07:12:47;;;;;;;18.77;10.27;;;;;;;9.95;100.00;99254.38;5129341;27;20092;-79
2023/04/26 07:15:32;;;;;;;20.40;10.27;;;;;;;10.37;100.00;99255.41;5123576;27;20169;-78
2023/04/26 07:18:16;;;;;;;20.08;11.70;;;;;;;10.51;100.00;99261.59;5132617;27;20042;-79
2023/04/26 07:21:00;;;;;;;18.55;11.05;;;;;;;10.57;100.00;99255.63;5130111;27;20050;-78
2023/04/26 07:23:44;;;;;;;22.50;10.98;;;;;;;10.92;100.00;99257.50;5126906;27;20050;-79
2023/04/26 07:26:29;;;;;;;17.20;10.77;;;;;;;11.02;100.00;99245.88;5135553;27;20126;-84
2023/04/26 07:29:13;;;;;;;17.23;11.57;;;;;;;11.22;100.00;99249.41;5132546;27;20077;-82
2023/04/26 07:31:57;;;;;;;19.02;11.43;;;;;;;11.40;100.00;99253.38;5134518;27;20135;-81
2023/04/26 07:34:41;;;;;;;21.60;11.40;;;;;;;11.34;98.96;99252.31;5131836;27;20042;-81
2023/04/26 07:37:25;;;;;;;19.67;11.77;;;;;;;11.60;97.67;99255.28;5118785;27;20097;-81
2023/04/26 07:40:10;;;;;;;20.85;11.55;;;;;;;11.84;97.23;99243.41;5118687;27;20108;-80
2023/04/26 07:42:54;;;;;;;19.35;11.25;;;;;;;12.05;97.03;99245.13;5121143;27;20061;-81
2023/04/26 07:45:38;;;;;;;22.10;12.63;;;;;;;12.23;96.65;99241.91;5120209;27;20196;-81
2023/04/26 07:48:22;;;;;;;20.70;12.40;;;;;;;12.12;94.37;99245.94;5118990;27;20511;-80
2023/04/26 07:51:07;;;;;;;23.08;12.75;;;;;;;11.80;94.47;99245.63;5119961;27;20043;-78
2023/04/26 07:53:51;;;;;;;19.80;11.52;;;;;;;12.18;94.57;99244.34;5120429;27;20089;-82
2023/04/26 07:56:35;;;;;;;20.50;12.27;;;;;;;12.32;94.19;99250.44;5121431;27;20041;-80
2023/04/26 07:59:22;;;;;;;20.30;11.43;;;;;;;12.44;93.65;99248.00;5122723;27;20042;-80
2023/04/26 08:02:06;;;;;;;25.60;11.13;;;;;;;12.50;92.13;99249.03;5122809;27;20555;-80
2023/04/26 08:04:54;;;;;;;18.40;10.93;;;;;;;12.56;91.81;99246.41;5120292;27;20092;-80
2023/04/26 08:07:39;;;;;;;19.42;10.27;;;;;;;12.74;90.51;99252.06;5126985;27;20550;-80
2023/04/26 08:10:23;;;;;;;18.55;10.63;;;;;;;12.96;89.56;99240.28;5125007;27;20096;-80
2023/04/26 08:13:07;;;;;;;16.40;10.15;;;;;;;13.09;87.74;99243.91;5124306;27;20467;-80
2023/04/26 08:15:51;;;;;;;19.52;9.70;;;;;;;13.39;85.88;99243.47;5119694;27;20108;-80
2023/04/26 08:18:35;;;;;;;17.50;9.85;;;;;;;13.35;80.03;99237.78;5117463;27;20092;-81
2023/04/26 08:21:19;;;;;;;15.80;8.88;;;;;;;13.55;79.53;99229.03;5122129;27;20125;-80
2023/04/26 08:24:03;;;;;;;14.68;8.50;;;;;;;13.36;76.87;99233.31;5126195;27;20138;-81
2023/04/26 08:26:48;;;;;;;13.30;8.77;;;;;;;13.83;77.34;99218.13;5122676;27;20127;-81
2023/04/26 08:29:32;;;;;;;13.57;8.55;;;;;;;14.16;74.16;99215.50;5121303;27;20384;-81
2023/04/26 08:32:16;;;;;;;16.20;8.75;;;;;;;14.05;73.95;99225.72;5119975;27;20046;-81
2023/04/26 08:35:00;;;;;;;13.55;9.07;;;;;;;14.26;73.41;99232.50;5117798;27;20035;-81
2023/04/26 08:37:43;;;;;;;13.95;8.30;;;;;;;14.33;72.33;99221.06;5117002;27;20539;-80
2023/04/26 08:40:28;;;;;;;14.40;7.75;;;;;;;14.49;71.72;99222.38;5122497;27;20038;-80
2023/04/26 08:43:14;;;;;;;15.32;8.55;;;;;;;14.66;72.06;99226.06;5118180;27;20128;-80
2023/04/26 08:46:00;;;;;;;16.48;8.18;;;;;;;14.64;70.62;99230.78;5121541;27;20058;-80
2023/04/26 08:48:52;;;;;;;14.00;7.85;;;;;;;14.28;68.10;99227.00;5118485;27;20050;-80
2023/04/26 08:51:36;;;;;;;18.33;7.60;;;;;;;14.29;69.16;99223.31;5123953;27;20376;-80
2023/04/26 08:54:21;;;;;;;12.20;7.93;;;;;;;14.14;68.73;99224.44;5116515;27;20562;-80
2023/04/26 08:57:10;;;;;;;16.80;8.38;;;;;;;13.68;68.29;99225.50;5119339;27;20504;-79
2023/04/26 08:59:56;;;;;;;13.23;8.57;;;;;;;13.21;70.63;99226.47;5119368;27;20042;-79
2023/04/26 09:02:46;;;;;;;14.35;7.55;;;;;;;12.96;71.39;99229.75;5118191;27;20443;-80
2023/04/26 09:05:30;;;;;;;12.88;8.40;;;;;;;12.81;73.40;99229.19;5122950;27;20042;-80
2023/04/26 09:08:20;;;;;;;17.73;8.85;;;;;;;12.34;72.66;99232.59;5125519;27;20089;-80
2023/04/26 09:11:05;;;;;;;13.23;8.23;;;;;;;12.25;72.87;99228.56;5125414;27;20569;-80
2023/04/26 09:13:49;;;;;;;15.10;7.22;;;;;;;12.25;73.82;99225.94;5121686;27;20501;-80
2023/04/26 09:16:35;;;;;;;14.95;7.80;;;;;;;11.85;72.94;99227.44;5119802;27;20050;-80
2023/04/26 09:19:34;;;;;;;15.27;7.85;;;;;;;12.02;73.99;99232.38;5116942;27;20042;-81
2023/04/26 09:22:32;;;;;;;15.18;8.10;;;;;;;12.14;74.08;99222.88;5116261;27;20388;-82
2023/04/26 09:25:18;;;;;;;14.85;8.10;;;;;;;12.19;70.92;99218.84;5119968;27;20496;-82
2023/04/26 09:28:17;;;;;;;12.32;8.07;;;;;;;12.20;70.90;99220.47;5120652;27;20126;-82
2023/04/26 09:31:01;;;;;;;11.60;8.05;;;;;;;12.30;73.35;99220.88;5122938;27;20042;-82
2023/04/26 09:33:58;;;;;;;12.75;8.60;;;;;;;12.34;72.43;99229.97;5117362;27;20082;-81
2023/04/26 09:36:56;;;;;;;13.02;7.53;;;;;;;12.31;71.78;99227.75;5122120;27;20107;-81
2023/04/26 09:39:41;;;;;;;16.55;8.20;;;;;;;12.40;73.36;99231.81;5121352;27;20055;-81
2023/04/26 09:42:25;;;;;;;13.18;8.02;;;;;;;12.52;73.77;99224.13;5116586;27;20115;-82
2023/04/26 09:45:10;;;;;;;15.90;9.32;;;;;;;12.46;74.48;99229.38;5117769;27;20092;-82
2023/04/26 09:47:54;;;;;;;17.90;9.40;;;;;;;12.66;71.91;99232.00;5116856;27;20042;-81
2023/04/26 09:50:39;;;;;;;18.30;10.10;;;;;;;12.74;70.08;99231.81;5120319;27;20051;-81
2023/04/26 09:53:38;;;;;;;18.23;9.32;;;;;;;12.64;67.54;99232.22;5115169;27;21513;-82
2023/04/26 09:56:22;;;;;;;14.18;8.27;;;;;;;12.96;68.21;99226.31;5120102;27;20069;-82
2023/04/26 09:59:07;;;;;;;13.20;9.05;;;;;;;12.63;67.67;99225.34;5119849;27;20069;-81
2023/04/26 10:01:51;;;;;;;19.23;9.23;;;;;;;13.23;69.44;99224.44;5120229;27;20520;-81
2023/04/26 10:04:36;;;;;;;15.52;9.27;;;;;;;13.75;68.68;99225.47;5119916;27;20126;-81
2023/04/26 10:07:21;;;;;;;13.50;8.85;;;;;;;14.24;67.74;99223.16;5122634;27;20119;-81
2023/04/26 10:10:10;;;;;;;12.00;8.70;;;;;;;14.65;66.08;99219.19;5122074;27;20087;-83
2023/04/26 10:12:55;;;;;;;19.67;9.65;;;;;;;14.77;62.61;99216.66;5144077;27;20075;-81
2023/04/26 10:15:40;;;;;;;11.82;8.90;;;;;;;14.81;62.97;99219.69;5117674;27;20034;-81
2023/04/26 10:18:25;;;;;;;12.48;8.30;;;;;;;14.95;63.23;99215.91;5125833;27;20364;-81
2023/04/26 10:21:32;;;;;;;13.65;8.68;;;;;;;14.30;59.87;99205.66;5118400;28;20504;-82
2023/04/26 10:24:17;;;;;;;12.90;8.80;;;;;;;14.18;58.95;99206.34;5123150;28;20200;-80
2023/04/26 10:27:03;;;;;;;14.88;9.27;;;;;;;14.34;58.22;99202.34;5121712;27;20046;-79
2023/04/26 10:29:53;;;;;;;15.27;9.43;;;;;;;14.33;58.10;99206.03;5119442;28;20527;-81
2023/04/26 10:32:55;;;;;;;13.68;8.57;;;;;;;14.96;60.07;99193.72;5121175;28;20096;-79
2023/04/26 10:36:09;;;;;;;12.45;8.02;;;;;;;14.89;55.97;99190.31;5117239;28;20042;-80
2023/04/26 10:39:22;;;;;;;17.60;9.07;;;;;;;15.25;55.94;99187.94;5122344;28;20121;-79
2023/04/26 10:42:26;;;;;;;16.13;8.68;;;;;;;15.63;56.72;99184.19;5116110;28;20031;-79
2023/04/26 10:45:26;;;;;;;11.65;7.82;;;;;;;15.62;55.85;99184.41;5119699;28;20164;-80
2023/04/26 10:48:31;;;;;;;11.10;8.70;;;;;;;16.04;54.72;99175.72;5119237;28;20088;-80
2023/04/26 10:51:16;;;;;;;9.30;7.78;;;;;;;16.27;54.03;99181.06;5120866;28;20471;-79
2023/04/26 10:54:01;;;;;;;11.00;8.20;;;;;;;16.41;55.06;99175.53;5119991;28;20039;-78
2023/04/26 10:56:49;;;;;;;15.48;8.05;;;;;;;16.11;56.17;99177.22;5116762;28;20035;-77
2023/04/26 10:59:33;;;;;;;12.82;7.78;;;;;;;15.75;56.64;99178.94;5119745;28;20039;-77
2023/04/26 11:02:43;;;;;;;11.30;7.85;;;;;;;15.53;56.68;99176.78;5118792;27;20069;-78
2023/04/26 11:05:40;;;;;;;11.32;7.95;;;;;;;15.21;56.80;99174.34;5115077;27;20554;-79
2023/04/26 11:08:30;;;;;;;15.45;8.02;;;;;;;15.19;56.38;99171.09;5119155;28;20514;-78
2023/04/26 11:11:16;;;;;;;16.52;8.73;;;;;;;14.88;56.75;99177.34;5118013;27;20046;-78
2023/04/26 11:14:00;;;;;;;14.38;7.60;;;;;;;14.74;56.69;99174.00;5118252;27;20512;-78
2023/04/26 11:16:45;;;;;;;11.30;7.40;;;;;;;14.40;56.96;99183.03;5122977;27;20084;-78
2023/04/26 11:19:28;;;;;;;14.15;9.02;;;;;;;14.41;56.78;99170.63;5118764;27;20034;-79
2023/04/26 11:22:13;;;;;;;13.55;8.07;;;;;;;14.18;57.42;99174.66;5122249;27;20444;-78
2023/04/26 11:24:59;;;;;;;14.90;7.97;;;;;;;14.24;58.03;99180.91;5121534;27;20115;-78
2023/04/26 11:27:44;;;;;;;15.98;9.05;;;;;;;14.00;56.14;99183.31;5122469;27;20047;-78
2023/04/26 11:30:30;;;;;;;10.68;8.05;;;;;;;13.62;56.35;99186.78;5116423;27;20043;-79
2023/04/26 11:33:17;;;;;;;16.05;9.43;;;;;;;13.42;56.16;99188.47;5114892;27;20075;-78
2023/04/26 11:36:02;;;;;;;19.05;8.10;;;;;;;13.51;56.76;99186.44;5117364;27;20636;-79
2023/04/26 11:38:47;;;;;;;12.68;7.88;;;;;;;13.59;57.20;99184.59;5117776;27;20550;-79
2023/04/26 11:41:31;;;;;;;15.68;8.25;;;;;;;13.50;57.42;99190.09;5115937;27;20428;-78
2023/04/26 11:44:21;;;;;;;15.43;8.38;;;;;;;13.53;58.07;99191.50;5119814;27;20443;-79
2023/04/26 11:47:07;;;;;;;14.10;8.23;;;;;;;13.41;60.36;99188.69;5116247;27;20459;-78
2023/04/26 11:49:52;;;;;;;14.35;8.13;;;;;;;13.34;59.87;99193.16;5124267;27;20147;-78
2023/04/26 11:52:36;;;;;;;15.20;8.60;;;;;;;13.35;58.78;99192.97;5121337;27;20047;-78
2023/04/26 11:55:27;;;;;;;13.60;7.97;;;;;;;13.36;58.97;99184.03;5115560;27;20499;-78
2023/04/26 11:58:13;;;;;;;14.88;8.73;;;;;;;13.14;59.54;99200.13;5123549;27;20132;-78
2023/04/26 12:01:01;;;;;;;13.63;9.27;;;;;;;13.26;58.31;99192.38;5119069;27;20091;-78
2023/04/26 12:03:52;;;;;;;15.32;8.93;;;;;;;13.05;59.56;99200.56;5120979;27;20034;-77
2023/04/26 12:06:46;;;;;;;15.02;8.85;;;;;;;13.04;59.05;99199.72;5121438;27;20071;-78
2023/04/26 12:09:30;;;;;;;12.52;8.63;;;;;;;13.14;59.61;99197.50;5115865;27;20116;-78
2023/04/26 12:12:15;;;;;;;18.05;9.57;;;;;;;13.21;58.77;99208.03;5115085;27;20038;-77
2023/04/26 12:15:07;;;;;;;17.80;9.48;;;;;;;13.14;58.54;99199.31;5120423;27;20087;-78
2023/04/26 12:17:52;;;;;;;13.13;9.38;;;;;;;13.35;57.78;99200.03;5117697;27;20097;-79
2023/04/26 12:20:38;;;;;;;17.02;9.93;;;;;;;13.38;59.10;99194.38;5122506;27;20069;-78
2023/04/26 12:23:23;;;;;;;11.85;9.60;;;;;;;13.52;57.97;99203.06;5118825;27;20172;-78
2023/04/26 12:26:10;;;;;;;13.98;8.82;;;;;;;13.69;56.72;99201.56;5119834;27;20050;-78
2023/04/26 12:28:55;;;;;;;12.70;9.13;;;;;;;13.61;55.67;99193.09;5117119;27;20070;-78
2023/04/26 12:31:39;;;;;;;14.32;9.13;;;;;;;13.72;56.95;99200.31;5121436;27;20045;-78
2023/04/26 12:34:23;;;;;;;16.00;10.15;;;;;;;13.89;57.84;99195.38;5116019;27;20114;-79
2023/04/26 12:37:08;;;;;;;20.38;10.02;;;;;;;14.06;57.40;99200.16;5121757;27;20046;-78
2023/04/26 12:39:53;;;;;;;14.43;9.98;;;;;;;14.23;58.25;99197.78;5129779;27;20127;-79
2023/04/26 12:42:38;;;;;;;15.00;10.60;;;;;;;14.27;57.04;99196.31;5120194;27;20090;-79
2023/04/26 12:45:25;;;;;;;19.67;12.60;;;;;;;14.42;56.86;99202.09;5121336;27;20094;-85
2023/04/26 12:48:10;;;;;;;17.92;10.40;;;;;;;14.66;56.09;99199.66;5117487;27;20062;-79
2023/04/26 12:50:54;;;;;;;12.60;9.18;;;;;;;14.88;56.42;99191.34;5124323;27;20676;-81
2023/04/26 12:53:38;;;;;;;19.40;11.90;;;;;;;14.97;55.57;99195.34;5129613;27;20060;-80
2023/04/26 12:56:23;;;;;;;23.88;11.88;;;;;;;15.10;56.61;99198.84;5118096;27;20112;-79
2023/04/26 12:59:08;;;;;;;13.60;9.95;;;;;;;15.34;55.63;99205.09;5119669;27;20050;-79
2023/04/26 13:01:52;;;;;;;22.55;12.95;;;;;;;15.32;54.26;99203.69;5119152;27;20092;-82
2023/04/26 13:04:37;;;;;;;18.38;11.63;;;;;;;15.55;54.54;99208.31;5114446;27;20065;-79
2023/04/26 13:07:21;;;;;;;16.80;10.65;;;;;;;15.68;55.08;99207.31;5120833;27;20512;-79
2023/04/26 13:10:07;;;;;;;16.20;9.93;;;;;;;15.70;55.39;99202.59;5115595;27;20092;-79
2023/04/26 13:12:52;;;;;;;16.02;10.55;;;;;;;15.53;53.95;99211.19;5117452;27;20042;-81
2023/04/26 13:15:36;;;;;;;15.02;9.25;;;;;;;15.66;54.17;99212.84;5113585;27;20542;-81
2023/04/26 13:18:20;;;;;;;18.55;9.43;;;;;;;15.81;54.24;99212.44;5123163;27;20385;-79
2023/04/26 13:21:04;;;;;;;12.65;9.20;;;;;;;15.82;53.52;99216.69;5119514;27;20037;-81
2023/04/26 13:23:49;;;;;;;14.82;9.48;;;;;;;15.82;52.13;99211.41;5112799;27;20503;-80
2023/04/26 13:26:33;;;;;;;10.25;8.45;;;;;;;16.20;52.35;99211.31;5119023;27;20499;-81
2023/04/26 13:29:17;;;;;;;16.55;10.02;;;;;;;16.44;54.22;99212.16;5112192;27;20038;-80
2023/04/26 13:32:01;;;;;;;14.20;9.25;;;;;;;16.99;52.95;99213.69;5120391;27;21095;-80
2023/04/26 13:34:46;;;;;;;16.48;9.90;;;;;;;17.16;49.89;99215.63;5121030;27;20050;-79
2023/04/26 13:37:30;;;;;;;14.43;8.82;;;;;;;17.11;49.55;99207.56;5118039;27;20115;-80
2023/04/26 13:40:15;;;;;;;16.13;9.40;;;;;;;17.40;49.66;99212.91;5115207;27;20534;-80
2023/04/26 13:43:00;;;;;;;17.30;9.38;;;;;;;17.49;49.64;99208.88;5123471;27;20495;-80
2023/04/26 13:45:44;;;;;;;12.57;8.90;;;;;;;18.06;49.67;99214.41;5116467;27;20071;-80
2023/04/26 13:48:28;;;;;;;15.73;9.50;;;;;;;17.81;48.06;99207.59;5119225;27;20744;-80
2023/04/26 13:51:12;;;;;;;13.05;8.85;;;;;;;17.81;48.03;99215.56;5116259;27;21785;-80
2023/04/26 13:53:56;;;;;;;13.88;8.70;;;;;;;17.90;47.01;99210.66;5118122;27;20080;-80
2023/04/26 13:56:40;;;;;;;13.00;8.48;;;;;;;17.85;48.64;99209.50;5115949;27;20069;-81
2023/04/26 13:59:25;;;;;;;14.00;8.70;;;;;;;18.24;48.38;99221.34;5122195;27;20045;-81
2023/04/26 14:02:09;;;;;;;13.43;9.48;;;;;;;18.47;47.66;99203.63;5118306;27;20050;-81
2023/04/26 14:04:53;;;;;;;11.93;9.02;;;;;;;18.46;48.18;99210.00;5119947;27;20437;-80
2023/04/26 14:07:39;;;;;;;13.50;8.45;;;;;;;18.23;48.08;99209.09;5122909;27;20104;-79
2023/04/26 14:10:23;;;;;;;13.50;9.10;;;;;;;18.35;48.87;99204.53;5119243;27;20030;-80
2023/04/26 14:13:07;;;;;;;14.25;8.90;;;;;;;18.58;48.62;99205.41;5115009;27;20084;-79
2023/04/26 14:15:51;;;;;;;12.77;8.15;;;;;;;18.91;48.07;99205.59;5118841;27;20402;-79
2023/04/26 14:18:36;;;;;;;12.85;8.55;;;;;;;19.03;46.71;99205.50;5121796;27;20042;-79
2023/04/26 14:21:20;;;;;;;15.27;8.75;;;;;;;18.76;45.31;99195.56;5118352;28;20095;-79
2023/04/26 14:24:04;;;;;;;;;;;;;;;18.53;45.40;99197.34;5116896;27;20501;-79
2023/04/26 14:26:48;;;;;;;14.35;9.73;;;;;;;18.21;45.88;99197.91;5122588;27;19918;-79
2023/04/26 14:29:32;;;;;;;15.20;8.55;;;;;;;18.58;47.33;99191.31;5112503;27;20082;-81
2023/04/26 14:32:16;;;;;;;12.13;8.35;;;;;;;19.02;48.61;99195.91;5116112;28;20038;-80
2023/04/26 14:35:00;;;;;;;11.75;8.52;;;;;;;18.97;50.15;99197.44;5122030;28;20100;-81
2023/04/26 14:37:44;;;;;;;10.80;8.68;;;;;;;18.92;47.92;99189.41;5116562;28;20046;-81
2023/04/26 14:40:29;;;;;;;11.20;8.20;;;;;;;18.93;49.21;99198.97;5107832;28;20096;-79
2023/04/26 14:43:13;;;;;;;10.13;8.00;;;;;;;18.97;48.18;99191.31;5116939;28;20127;-78
2023/04/26 14:45:57;;;;;;;11.63;8.00;;;;;;;18.75;48.31;99185.97;5111066;27;20087;-78
2023/04/26 14:48:44;;;;;;;11.05;8.68;;;;;;;18.57;47.55;99193.16;5123372;27;20090;-78
2023/04/26 14:51:28;;;;;;;12.80;8.55;;;;;;;18.66;48.60;99194.34;5122667;27;20526;-79
2023/04/26 14:54:12;;;;;;;11.82;9.02;;;;;;;18.58;48.07;99184.13;5119020;27;20046;-77
2023/04/26 14:56:57;;;;;;;11.98;7.88;;;;;;;18.76;48.02;99184.91;5123511;27;20065;-78
2023/04/26 14:59:41;;;;;;;14.25;8.65;;;;;;;19.32;47.49;99186.72;5123380;27;20069;-80
2023/04/26 15:02:25;;;;;;;13.13;8.88;;;;;;;18.96;47.63;99185.19;5126807;27;20524;-80
2023/04/26 15:05:10;;;;;;;13.32;8.75;;;;;;;19.53;45.56;99187.72;5120346;27;20051;-80
2023/04/26 15:07:55;;;;;;;12.07;7.70;;;;;;;19.93;46.02;99183.09;5123504;27;20043;-78
2023/04/26 15:10:39;;;;;;;14.52;8.27;;;;;;;20.24;44.19;99186.00;5123701;27;20034;-78
2023/04/26 15:13:23;;;;;;;13.90;8.48;;;;;;;20.39;44.80;99185.31;5123664;27;20042;-79
2023/04/26 15:16:07;;;;;;;12.48;9.07;;;;;;;20.30;43.07;99179.66;5124231;27;20038;-79
2023/04/26 15:22:01;;;;;;;12.00;7.78;;;;;;;19.98;43.51;99173.28;5121278;27;20039;-80
2023/04/26 15:24:45;;;;;;;12.73;7.80;;;;;;;20.57;44.58;99168.09;5126081;27;20094;-78
2023/04/26 15:27:29;;;;;;;11.75;8.35;;;;;;;20.44;44.57;99173.88;5119493;27;20511;-79
2023/04/26 15:30:13;;;;;;;17.27;8.80;;;;;;;20.07;43.84;99170.97;5118766;27;20131;-77
2023/04/26 15:32:57;;;;;;;17.25;8.55;;;;;;;19.92;44.33;99173.50;5121738;27;20101;-77
2023/04/26 15:35:41;;;;;;;13.45;9.07;;;;;;;20.20;44.62;99166.25;5126420;27;20054;-79
2023/04/26 15:38:25;;;;;;;13.95;8.57;;;;;;;20.59;43.36;99171.31;5122090;27;20050;-78
2023/04/26 15:41:09;;;;;;;15.00;8.95;;;;;;;20.37;41.10;99160.78;5124020;27;20107;-81
2023/04/26 15:43:56;;;;;;;13.52;8.75;;;;;;;20.50;41.97;99167.53;5128378;27;20030;-79
2023/04/26 15:46:41;;;;;;;12.82;8.63;;;;;;;20.00;42.19;99158.91;5128827;27;20064;-78
2023/04/26 15:49:25;;;;;;;9.98;8.38;;;;;;;20.67;44.37;99157.50;5121388;27;20125;-81
2023/04/26 15:52:10;;;;;;;13.38;8.50;;;;;;;20.45;41.95;99157.63;5122362;27;20404;-83
2023/04/26 15:54:54;;;;;;;14.45;8.13;;;;;;;20.58;41.94;99158.25;5122868;27;20116;-83
2023/04/26 15:57:41;;;;;;;10.25;7.95;;;;;;;20.12;42.57;99157.69;5121046;27;20511;-84
2023/04/26 16:00:25;;;;;;;11.52;8.55;;;;;;;19.49;43.16;99154.69;5124083;27;20062;-83
2023/04/26 16:03:10;;;;;;;14.90;8.02;;;;;;;18.86;45.19;99158.44;5124229;27;20099;-83
2023/04/26 16:05:53;;;;;;;14.38;8.80;;;;;;;18.16;46.10;99158.78;5123785;27;20119;-83
2023/04/26 16:08:38;;;;;;;14.20;8.63;;;;;;;17.72;45.96;99167.34;5123746;27;20038;-82
2023/04/26 16:11:22;;;;;;;16.02;8.77;;;;;;;17.19;46.86;99170.06;5117770;27;20542;-84
2023/04/26 16:14:06;;;;;;;14.38;9.45;;;;;;;16.96;48.06;99174.34;5115218;27;20089;-84
2023/04/26 16:16:50;;;;;;;14.80;9.45;;;;;;;16.01;47.01;99182.25;5123032;27;20126;-83
2023/04/26 16:19:34;;;;;;;14.35;8.43;;;;;;;16.38;47.62;99175.97;5120628;27;20061;-83
2023/04/26 16:22:18;;;;;;;14.35;8.75;;;;;;;16.22;47.91;99172.16;5125498;27;20042;-87
2023/04/26 16:25:06;;;;;;;14.60;9.43;;;;;;;16.62;48.96;99168.84;5120266;27;20054;-82
2023/04/26 16:27:50;;;;;;;12.90;9.70;;;;;;;16.92;49.69;99169.75;5124645;27;20520;-85
2023/04/26 16:30:35;;;;;;;15.02;9.88;;;;;;;17.01;48.95;99170.22;5121239;27;20049;-85
2023/04/26 16:33:20;;;;;;;14.95;9.02;;;;;;;17.06;49.04;99179.09;5123304;27;20504;-85
2023/04/26 16:36:04;;;;;;;16.40;8.30;;;;;;;17.11;48.53;99179.19;5121659;27;20050;-85
2023/04/26 16:38:48;;;;;;;15.85;8.63;;;;;;;17.07;49.21;99174.59;5117278;27;20127;-86
2023/04/26 16:41:32;;;;;;;12.07;8.70;;;;;;;17.48;48.94;99175.38;5121611;27;20034;-83
2023/04/26 16:44:16;;;;;;;13.77;8.93;;;;;;;17.78;48.42;99174.34;5121715;27;20096;-84
2023/04/26 16:47:00;;;;;;;13.10;9.02;;;;;;;18.02;47.65;99171.59;5122733;27;20396;-84
2023/04/26 16:49:45;;;;;;;14.98;8.48;;;;;;;17.81;47.67;99176.50;5118589;27;20039;-84
2023/04/26 16:52:32;;;;;;;12.32;8.98;;;;;;;17.95;47.36;99174.34;5121421;27;20168;-86
2023/04/26 16:55:16;;;;;;;18.23;14.20;;;;;;;17.82;46.69;99175.47;5124629;27;20507;-86
2023/04/26 16:58:00;;;;;;;19.77;11.45;;;;;;;18.07;47.35;99173.53;5120468;27;20569;-83
2023/04/26 17:00:44;;;;;;;11.15;9.32;;;;;;;18.19;47.40;99179.56;5121223;27;20038;-85
2023/04/26 17:03:29;;;;;;;28.83;18.45;;;;;;;18.23;45.93;99172.72;5122418;27;20061;-83
2023/04/26 17:06:14;;;;;;;21.73;13.82;;;;;;;18.38;45.92;99182.00;5120916;27;20083;-84
2023/04/26 17:08:57;;;;;;;19.42;13.55;;;;;;;18.28;45.97;99177.31;5114257;27;20149;-84
2023/04/26 17:11:43;;;;;;;19.08;11.90;;;;;;;17.92;45.99;99179.38;5126820;27;20083;-83
2023/04/26 17:14:27;;;;;;;13.55;9.38;;;;;;;17.83;46.78;99179.75;5115210;27;20078;-84
2023/04/26 17:17:11;;;;;;;15.23;9.10;;;;;;;17.59;47.28;99171.09;5123580;27;20084;-86
2023/04/26 17:19:55;;;;;;;14.73;9.90;;;;;;;17.46;47.41;99171.38;5118816;27;20401;-85
2023/04/26 17:22:39;;;;;;;17.02;11.25;;;;;;;17.40;48.22;99181.06;5114926;27;20405;-83
2023/04/26 17:25:24;;;;;;;15.13;9.40;;;;;;;17.26;48.27;99178.69;5116466;27;20047;-84
2023/04/26 17:28:09;;;;;;;11.60;8.82;;;;;;;17.04;49.46;99183.00;5114670;27;20119;-85
2023/04/26 17:30:53;;;;;;;14.57;9.40;;;;;;;16.98;48.43;99180.25;5121894;27;20088;-84
2023/04/26 17:33:37;;;;;;;13.68;8.32;;;;;;;16.63;48.90;99189.00;5129471;27;20114;-83
2023/04/26 17:36:22;;;;;;;17.35;9.68;;;;;;;16.56;49.09;99185.69;5120559;27;20101;-86
2023/04/26 17:39:08;;;;;;;12.55;9.43;;;;;;;16.48;49.21;99186.00;5121910;27;20502;-84
2023/04/26 17:41:52;;;;;;;14.05;9.02;;;;;;;16.29;49.29;99186.09;5122586;27;20046;-83
2023/04/26 17:44:36;;;;;;;14.02;9.35;;;;;;;16.25;48.65;99192.91;5122793;27;20169;-85
2023/04/26 17:47:19;;;;;;;15.52;9.60;;;;;;;16.22;49.87;99186.22;5117073;27;20038;-83
2023/04/26 17:50:04;;;;;;;10.77;8.68;;;;;;;16.17;48.89;99186.09;5117108;27;20042;-85
2023/04/26 17:52:48;;;;;;;19.60;9.90;;;;;;;15.78;50.83;99183.78;5116731;27;20122;-86
2023/04/26 17:55:32;;;;;;;13.32;9.93;;;;;;;15.40;50.05;99182.25;5115954;27;20100;-85
2023/04/26 17:58:16;;;;;;;16.30;9.20;;;;;;;15.18;51.09;99185.34;5119927;27;20108;-85
2023/04/26 18:01:00;;;;;;;16.05;9.65;;;;;;;15.02;51.42;99181.44;5117155;27;20519;-86
2023/04/26 18:03:45;;;;;;;16.90;9.68;;;;;;;14.73;51.07;99173.22;5114489;27;20126;-82
2023/04/26 18:06:28;;;;;;;13.82;9.00;;;;;;;14.86;51.46;99166.97;5113133;27;20066;-84
2023/04/26 18:09:12;;;;;;;13.82;8.98;;;;;;;14.73;52.03;99182.97;5123610;27;20096;-86
2023/04/26 18:11:56;;;;;;;17.23;10.52;;;;;;;14.69;52.02;99178.09;5115495;27;20514;-84
2023/04/26 18:14:43;;;;;;;18.83;10.02;;;;;;;14.65;52.21;99163.69;5123503;27;20059;-85
2023/04/26 18:17:27;;;;;;;12.52;9.63;;;;;;;14.62;52.65;99166.78;5123716;27;20061;-85
2023/04/26 18:20:12;;;;;;;15.65;10.02;;;;;;;14.42;53.64;99167.78;5125487;27;20145;-86
2023/04/26 18:22:56;;;;;;;12.85;9.63;;;;;;;14.27;53.60;99169.94;5119249;28;20046;-85
2023/04/26 18:25:41;;;;;;;15.23;10.65;;;;;;;14.08;53.17;99158.50;5124142;27;20093;-87
2023/04/26 18:28:25;;;;;;;18.63;9.98;;;;;;;14.11;53.48;99171.28;5120748;28;20050;-86
2023/04/26 18:31:09;;;;;;;12.65;9.40;;;;;;;14.13;53.20;99163.94;5123274;28;20050;-86
2023/04/26 18:33:53;;;;;;;15.73;9.20;;;;;;;14.11;53.97;99161.50;5125141;28;20043;-86
2023/04/26 18:36:37;;;;;;;10.27;8.23;;;;;;;14.07;54.30;99155.03;5132006;28;20054;-84
2023/04/26 18:39:24;;;;;;;18.50;9.55;;;;;;;14.03;54.35;99164.44;5116716;28;20065;-83
2023/04/26 18:42:08;;;;;;;17.75;9.52;;;;;;;13.92;54.97;99167.72;5129677;28;20039;-82
2023/04/26 18:44:52;;;;;;;15.13;9.65;;;;;;;13.81;56.91;99172.69;5127822;28;20087;-85
2023/04/26 18:47:36;;;;;;;15.82;10.63;;;;;;;13.71;56.23;99167.06;5131651;28;20069;-84
2023/04/26 18:50:20;;;;;;;18.00;9.48;;;;;;;13.54;56.48;99172.03;5133033;28;20046;-86
2023/04/26 18:53:04;;;;;;;14.73;10.27;;;;;;;13.36;56.63;99168.22;5117176;28;20046;-87
2023/04/26 18:55:54;;;;;;;15.23;9.35;;;;;;;13.16;57.82;99173.53;5120842;28;20051;-85
2023/04/26 18:58:38;;;;;;;17.52;10.02;;;;;;;12.91;57.79;99179.50;5137840;28;20461;-85
2023/04/26 19:01:23;;;;;;;15.65;8.77;;;;;;;12.65;58.89;99170.63;5120255;28;20047;-85
2023/04/26 19:04:08;;;;;;;12.98;9.50;;;;;;;12.39;58.85;99167.03;5124983;28;20042;-85
2023/04/26 19:06:52;;;;;;;16.70;9.13;;;;;;;12.20;58.99;99178.38;5121928;28;20077;-83
2023/04/26 19:09:38;;;;;;;14.95;10.05;;;;;;;11.98;60.28;99181.13;5115184;28;20042;-84
2023/04/26 19:12:22;;;;;;;16.85;10.82;;;;;;;11.64;60.39;99167.91;5114830;28;20052;-86
2023/04/26 19:15:07;;;;;;;12.60;9.88;;;;;;;11.51;61.32;99184.44;5115319;28;20077;-86
2023/04/26 19:17:50;;;;;;;17.40;10.07;;;;;;;11.34;61.70;99180.53;5115538;28;20400;-85